createdAt,value
2022-11-16T00:01:48.945Z,188.30
2022-11-16T00:04:32.092Z,181.37
2022-11-16T00:07:15.258Z,181.93
2022-11-16T00:09:59.765Z,175.43
2022-11-16T00:12:42.772Z,167.63
2022-11-16T00:15:26.859Z,162.47
2022-11-16T00:18:09.886Z,161.20
2022-11-16T00:20:52.987Z,143.73
2022-11-16T00:23:38.442Z,174.80
2022-11-16T00:26:23.171Z,238.23
2022-11-16T00:29:06.194Z,280.40
2022-11-16T00:31:50.124Z,170.37
2022-11-16T00:34:33.179Z,214.20
2022-11-16T00:37:16.196Z,156.53
2022-11-16T00:39:59.213Z,192.77
2022-11-16T00:42:43.571Z,172.90
2022-11-16T00:45:26.556Z,184.70
2022-11-16T00:48:09.607Z,179.40
2022-11-16T00:50:52.760Z,224.50
2022-11-16T00:53:36.692Z,152.67
2022-11-16T00:56:19.708Z,158.73
2022-11-16T00:59:04.166Z,172.73
2022-11-16T01:01:47.361Z,155.93
2022-11-16T01:04:30.506Z,161.10
2022-11-16T01:07:13.566Z,165.20
2022-11-16T01:09:56.642Z,176.00
2022-11-16T01:12:39.770Z,174.80
2022-11-16T01:15:26.995Z,177.40
2022-11-16T01:18:09.984Z,180.43
2022-11-16T01:20:54.374Z,180.13
2022-11-16T01:23:37.402Z,177.10
2022-11-16T01:26:20.653Z,182.80
2022-11-16T01:29:03.731Z,163.37
2022-11-16T01:31:48.178Z,175.47
2022-11-16T01:34:31.291Z,162.03
2022-11-16T01:37:14.304Z,225.97
2022-11-16T01:39:57.446Z,200.73
2022-11-16T01:42:40.701Z,282.97
2022-11-16T01:45:32.498Z,313.73
2022-11-16T01:48:23.314Z,162.53
2022-11-16T01:51:06.546Z,144.87
2022-11-16T01:53:49.674Z,205.10
2022-11-16T01:56:34.042Z,317.87
2022-11-16T01:59:18.665Z,210.53
2022-11-16T02:02:02.352Z,272.33
2022-11-16T02:04:48.874Z,158.57
2022-11-16T02:08:01.682Z,197.87
2022-11-16T02:10:59.867Z,161.50
2022-11-16T02:13:51.656Z,374.50
2022-11-16T02:16:44.421Z,300.40
2022-11-16T02:19:52.430Z,428.00
2022-11-16T02:22:49.537Z,358.13
2022-11-16T02:25:39.395Z,361.43
2022-11-16T02:28:34.425Z,242.60
2022-11-16T02:31:25.860Z,236.03
2022-11-16T02:34:12.276Z,372.10
2022-11-16T02:36:58.236Z,195.17
2022-11-16T02:39:43.095Z,200.70
2022-11-16T02:42:32.330Z,178.90
2022-11-16T02:45:21.373Z,152.10
2022-11-16T02:48:09.775Z,147.13
2022-11-16T02:50:54.540Z,150.03
2022-11-16T02:53:42.824Z,173.40
2022-11-16T02:56:26.729Z,187.23
2022-11-16T02:59:16.519Z,146.13
2022-11-16T03:02:14.958Z,360.37
2022-11-16T03:05:05.788Z,319.87
2022-11-16T03:07:53.430Z,346.57
2022-11-16T03:10:57.789Z,145.03
2022-11-16T03:13:42.742Z,200.03
2022-11-16T03:16:29.674Z,480.73
2022-11-16T03:19:15.772Z,342.37
2022-11-16T03:22:05.024Z,268.47
2022-11-16T03:24:48.891Z,198.50
2022-11-16T03:27:40.320Z,162.17
2022-11-16T03:30:25.658Z,237.13
2022-11-16T03:33:15.565Z,207.73
2022-11-16T03:36:04.910Z,336.30
2022-11-16T03:38:52.874Z,161.20
2022-11-16T03:41:38.726Z,166.10
2022-11-16T03:44:22.815Z,208.53
2022-11-16T03:47:06.011Z,160.70
2022-11-16T03:49:49.558Z,213.83
2022-11-16T03:52:32.797Z,397.77
2022-11-16T03:55:17.382Z,208.83
2022-11-16T03:58:00.400Z,213.73
2022-11-16T04:00:43.475Z,116.77
2022-11-16T04:03:26.546Z,180.80
2022-11-16T04:06:27.777Z,126.83
2022-11-16T04:09:28.332Z,127.93
2022-11-16T04:12:30.080Z,187.03
2022-11-16T04:15:30.576Z,144.60
2022-11-16T04:18:31.239Z,142.73
2022-11-16T04:21:37.488Z,253.80
2022-11-16T04:24:24.245Z,231.93
2022-11-16T04:27:27.847Z,119.43
2022-11-16T04:30:13.556Z,263.07
2022-11-16T04:33:13.682Z,165.43
2022-11-16T04:36:17.936Z,194.57
2022-11-16T04:39:03.676Z,167.03
2022-11-16T04:42:04.023Z,144.30
2022-11-16T04:45:04.850Z,265.53
2022-11-16T04:47:51.317Z,132.73
2022-11-16T04:50:35.011Z,178.23
2022-11-16T04:53:18.075Z,151.43
2022-11-16T04:56:01.224Z,159.63
2022-11-16T04:58:44.297Z,188.83
2022-11-16T05:01:41.196Z,131.80
2022-11-16T05:04:25.730Z,142.43
2022-11-16T05:07:11.259Z,134.70
2022-11-16T05:09:54.539Z,125.90
2022-11-16T05:12:37.655Z,110.83
2022-11-16T05:15:20.726Z,114.57
2022-11-16T05:18:03.768Z,101.83
2022-11-16T05:21:02.433Z,89.23
2022-11-16T05:24:02.570Z,100.70
2022-11-16T05:26:45.761Z,113.35
2022-11-16T05:29:28.882Z,99.87
2022-11-16T05:32:13.493Z,96.33
2022-11-16T05:34:56.544Z,88.47
2022-11-16T05:37:41.198Z,92.47
2022-11-16T05:40:24.206Z,86.30
2022-11-16T05:43:07.169Z,89.87
2022-11-16T05:45:50.178Z,114.80
2022-11-16T05:48:33.589Z,108.43
2022-11-16T05:51:16.813Z,121.20
2022-11-16T05:54:01.356Z,112.17
2022-11-16T05:56:44.504Z,104.90
2022-11-16T05:59:27.864Z,122.50
2022-11-16T06:02:10.861Z,107.80
2022-11-16T06:04:54.042Z,105.87
2022-11-16T06:07:37.232Z,113.80
2022-11-16T06:10:21.729Z,111.43
2022-11-16T06:13:04.851Z,104.47
2022-11-16T06:15:53.881Z,97.27
2022-11-16T06:18:38.852Z,93.23
2022-11-16T06:21:21.849Z,92.63
2022-11-16T06:24:09.050Z,94.63
2022-11-16T06:26:53.669Z,92.13
2022-11-16T06:29:36.721Z,96.13
2022-11-16T06:32:19.734Z,91.50
2022-11-16T06:35:02.787Z,103.80
2022-11-16T06:37:45.818Z,92.23
2022-11-16T06:40:28.874Z,96.17
2022-11-16T06:43:13.404Z,97.07
2022-11-16T06:45:58.499Z,103.37
2022-11-16T06:48:41.594Z,111.23
2022-11-16T06:51:24.574Z,105.23
2022-11-16T06:54:07.765Z,102.97
2022-11-16T06:56:50.883Z,103.33
2022-11-16T06:59:35.566Z,117.03
2022-11-16T07:02:21.397Z,112.70
2022-11-16T07:05:04.515Z,110.90
2022-11-16T07:07:47.593Z,111.37
2022-11-16T07:10:30.653Z,115.03
2022-11-16T07:13:13.981Z,106.53
2022-11-16T07:16:03.864Z,111.87
2022-11-16T07:18:46.884Z,112.60
2022-11-16T07:21:30.222Z,103.83
2022-11-16T07:24:13.268Z,108.13
2022-11-16T07:26:56.255Z,108.63
2022-11-16T07:29:39.308Z,103.90
2022-11-16T07:32:23.765Z,105.93
2022-11-16T07:35:07.782Z,100.50
2022-11-16T07:37:50.819Z,111.17
2022-11-16T07:40:33.837Z,118.97
2022-11-16T07:43:16.945Z,106.23
2022-11-16T07:46:30.327Z,117.03
2022-11-16T07:49:11.328Z,101.90
2022-11-16T07:51:54.821Z,101.03
2022-11-16T07:54:38.057Z,96.23
2022-11-16T07:57:21.097Z,100.17
2022-11-16T08:00:04.962Z,105.20
2022-11-16T08:02:47.949Z,88.30
2022-11-16T08:05:32.453Z,93.97
2022-11-16T08:08:15.489Z,89.33
2022-11-16T08:11:01.770Z,88.57
2022-11-16T08:13:45.088Z,100.80
2022-11-16T08:16:28.217Z,110.57
2022-11-16T08:19:11.517Z,101.90
2022-11-16T08:21:56.038Z,104.07
2022-11-16T08:24:39.089Z,105.50
2022-11-16T08:27:22.138Z,115.83
2022-11-16T08:30:09.898Z,113.87
2022-11-16T08:32:52.931Z,116.00
2022-11-16T08:35:36.388Z,136.77
2022-11-16T08:38:20.838Z,120.03
2022-11-16T08:41:03.934Z,118.23
2022-11-16T08:43:50.586Z,133.70
2022-11-16T08:46:33.786Z,125.63
2022-11-16T08:49:17.003Z,124.67
2022-11-16T08:52:00.220Z,140.57
2022-11-16T08:54:44.655Z,140.50
2022-11-16T08:57:27.725Z,138.47
2022-11-16T09:00:12.428Z,124.87
2022-11-16T09:02:55.478Z,127.50
2022-11-16T09:05:39.728Z,124.93
2022-11-16T09:08:22.773Z,122.20
2022-11-16T09:11:08.408Z,117.87
2022-11-16T09:13:53.878Z,122.03
2022-11-16T09:16:36.980Z,128.97
2022-11-16T09:19:20.623Z,127.50
2022-11-16T09:22:03.741Z,120.27
2022-11-16T09:24:46.753Z,130.40
2022-11-16T09:27:31.306Z,119.10
2022-11-16T09:30:14.953Z,136.23
2022-11-16T09:33:00.407Z,137.20
2022-11-16T09:35:43.600Z,110.97
2022-11-16T09:38:40.212Z,123.67
2022-11-16T09:41:53.238Z,112.97
2022-11-16T09:44:54.367Z,131.50
2022-11-16T09:47:49.119Z,120.20
2022-11-16T09:50:46.000Z,118.77
2022-11-16T09:53:35.379Z,115.90
2022-11-16T09:56:22.923Z,99.77
2022-11-16T09:59:17.946Z,93.87
2022-11-16T10:02:17.104Z,92.00
2022-11-16T10:05:05.050Z,91.57
2022-11-16T10:07:52.003Z,88.53
2022-11-16T10:10:38.966Z,80.90
2022-11-16T10:13:35.638Z,76.53
2022-11-16T10:16:24.033Z,81.43
2022-11-16T10:19:15.935Z,80.07
2022-11-16T10:22:08.353Z,57.77
2022-11-16T10:24:58.873Z,66.00
2022-11-16T10:28:03.127Z,56.03
2022-11-16T10:30:55.481Z,54.83
2022-11-16T10:33:41.112Z,56.70
2022-11-16T10:36:30.158Z,62.27
2022-11-16T10:39:18.213Z,61.27
2022-11-16T10:42:07.747Z,58.97
2022-11-16T10:44:58.849Z,57.57
2022-11-16T10:47:47.147Z,52.33
2022-11-16T10:50:38.543Z,54.90
2022-11-16T10:53:30.175Z,50.67
2022-11-16T10:56:19.010Z,54.03
2022-11-16T10:59:04.497Z,46.67
2022-11-16T11:01:51.090Z,50.50
2022-11-16T11:04:34.223Z,52.43
2022-11-16T11:07:29.764Z,52.43
2022-11-16T11:10:29.684Z,49.50
2022-11-16T11:13:27.748Z,56.70
2022-11-16T11:16:16.939Z,55.83
2022-11-16T11:19:18.797Z,54.73
2022-11-16T11:22:02.347Z,53.17
2022-11-16T11:24:49.640Z,59.30
2022-11-16T11:27:36.766Z,61.57
2022-11-16T11:30:22.301Z,60.73
2022-11-16T11:33:12.637Z,65.70
2022-11-16T11:36:06.863Z,65.27
2022-11-16T11:38:59.422Z,69.17
2022-11-16T11:41:47.085Z,67.30
2022-11-16T11:44:56.839Z,65.40
2022-11-16T11:47:58.983Z,62.80
2022-11-16T11:50:49.171Z,66.00
2022-11-16T11:53:48.236Z,62.07
2022-11-16T11:56:34.211Z,63.07
2022-11-16T11:59:21.644Z,70.20
2022-11-16T12:02:21.975Z,63.47
2022-11-16T12:05:42.933Z,63.03
2022-11-16T12:08:40.156Z,63.73
2022-11-16T12:11:32.345Z,61.43
2022-11-16T12:14:30.239Z,60.07
2022-11-16T12:17:20.733Z,57.80
2022-11-16T12:20:25.987Z,56.50
2022-11-16T12:23:23.119Z,58.70
2022-11-16T12:26:16.615Z,58.30
2022-11-16T12:29:14.303Z,55.90
2022-11-16T12:32:18.512Z,53.27
2022-11-16T12:35:27.570Z,58.93
2022-11-16T12:38:27.612Z,71.37
2022-11-16T12:41:38.797Z,59.10
2022-11-16T12:44:33.584Z,144.10
2022-11-16T12:47:29.140Z,61.37
2022-11-16T12:50:34.443Z,57.80
2022-11-16T12:53:52.785Z,66.93
2022-11-16T12:56:49.078Z,59.20
2022-11-16T12:59:47.738Z,54.07
2022-11-16T13:02:54.464Z,55.33
2022-11-16T13:05:53.754Z,62.63
2022-11-16T13:08:48.113Z,61.23
2022-11-16T13:11:35.135Z,66.83
2022-11-16T13:14:21.176Z,69.17
2022-11-16T13:17:05.836Z,68.53
2022-11-16T13:20:16.925Z,68.97
2022-11-16T13:23:04.169Z,61.87
2022-11-16T13:25:52.185Z,68.20
2022-11-16T13:28:41.080Z,70.37
2022-11-16T13:31:32.818Z,66.17
2022-11-16T13:34:21.637Z,57.37
2022-11-16T13:37:45.695Z,59.17
2022-11-16T13:40:31.224Z,59.40
2022-11-16T13:43:19.863Z,63.33
2022-11-16T13:46:02.985Z,60.20
2022-11-16T13:48:47.535Z,61.50
2022-11-16T13:51:30.655Z,64.37
2022-11-16T13:54:44.580Z,62.17
2022-11-16T13:57:24.392Z,74.27
2022-11-16T14:00:20.852Z,68.97
2022-11-16T14:03:27.802Z,64.33
2022-11-16T14:06:48.113Z,58.97
2022-11-16T14:09:45.019Z,70.83
2022-11-16T14:13:00.940Z,63.40
2022-11-16T14:15:44.004Z,62.13
2022-11-16T14:18:38.232Z,63.30
2022-11-16T14:21:39.313Z,69.10
2022-11-16T14:24:30.263Z,64.03
2022-11-16T14:27:30.298Z,62.40
2022-11-16T14:30:20.221Z,66.47
2022-11-16T14:33:03.724Z,69.10
2022-11-16T14:35:53.842Z,65.47
2022-11-16T14:38:39.557Z,65.50
2022-11-16T14:41:25.888Z,73.80
2022-11-16T14:44:11.871Z,82.43
2022-11-16T14:46:55.214Z,80.60
2022-11-16T14:49:48.266Z,76.93
2022-11-16T14:52:37.771Z,76.27
2022-11-16T14:55:22.886Z,94.20
2022-11-16T14:58:10.285Z,79.70
2022-11-16T15:00:58.076Z,86.70
2022-11-16T15:03:49.689Z,96.13
2022-11-16T15:06:40.215Z,72.70
2022-11-16T15:09:28.381Z,97.67
2022-11-16T15:12:33.792Z,86.40
2022-11-16T15:15:18.827Z,81.40
2022-11-16T15:18:14.953Z,99.60
2022-11-16T15:20:57.970Z,89.97
2022-11-16T15:24:02.131Z,99.17
2022-11-16T15:26:51.756Z,83.93
2022-11-16T15:29:34.825Z,93.80
2022-11-16T15:32:18.973Z,102.37
2022-11-16T15:35:05.441Z,106.23
2022-11-16T15:37:48.802Z,113.10
2022-11-16T15:40:32.081Z,98.53
2022-11-16T15:43:16.779Z,104.00
2022-11-16T15:46:00.980Z,105.17
2022-11-16T15:48:45.115Z,105.10
2022-11-16T15:51:32.335Z,102.17
2022-11-16T15:54:22.391Z,100.00
2022-11-16T15:57:10.303Z,101.20
2022-11-16T15:59:56.381Z,92.60
2022-11-16T16:02:39.494Z,103.97
2022-11-16T16:05:34.788Z,94.43
2022-11-16T16:08:35.351Z,93.93
2022-11-16T16:11:29.112Z,98.27
2022-11-16T16:14:22.387Z,90.97
2022-11-16T16:17:05.563Z,97.03
2022-11-16T16:19:56.139Z,99.13
2022-11-16T16:22:39.288Z,103.63
2022-11-16T16:25:32.414Z,100.20
2022-11-16T16:28:15.410Z,96.33
2022-11-16T16:30:58.438Z,97.93
2022-11-16T16:33:42.328Z,100.13
2022-11-16T16:36:25.339Z,91.30
2022-11-16T16:39:08.585Z,99.70
2022-11-16T16:41:53.018Z,95.20
2022-11-16T16:44:36.297Z,110.17
2022-11-16T16:47:21.331Z,94.80
2022-11-16T16:50:06.312Z,99.23
2022-11-16T16:52:49.717Z,101.50
2022-11-16T16:55:37.252Z,110.97
2022-11-16T16:58:22.316Z,119.53
2022-11-16T17:01:06.762Z,105.50
2022-11-16T17:03:50.603Z,96.93
2022-11-16T17:06:34.144Z,113.33
2022-11-16T17:09:17.576Z,113.27
2022-11-16T17:12:00.662Z,114.27
2022-11-16T17:14:52.355Z,114.97
2022-11-16T17:17:37.324Z,103.77
2022-11-16T17:20:20.452Z,118.70
2022-11-16T17:23:03.572Z,101.07
2022-11-16T17:25:46.713Z,105.47
2022-11-16T17:28:29.978Z,109.13
2022-11-16T17:31:15.089Z,102.27
2022-11-16T17:33:58.663Z,114.27
2022-11-16T17:36:41.668Z,107.47
2022-11-16T17:39:25.222Z,117.90
2022-11-16T17:42:09.415Z,127.10
2022-11-16T17:44:54.261Z,111.70
2022-11-16T17:47:39.228Z,117.97
2022-11-16T17:50:22.349Z,152.77
2022-11-16T17:53:05.736Z,150.17
2022-11-16T17:55:49.061Z,133.07
2022-11-16T17:58:32.903Z,168.60
2022-11-16T18:01:16.084Z,197.90
2022-11-16T18:04:01.103Z,178.93
2022-11-16T18:06:45.049Z,176.40
2022-11-16T18:09:28.392Z,169.40
2022-11-16T18:12:11.478Z,182.63
2022-11-16T18:15:21.296Z,174.30
2022-11-16T18:17:57.943Z,163.93
2022-11-16T18:20:42.507Z,159.13
2022-11-16T18:23:25.506Z,157.40
2022-11-16T18:26:09.996Z,153.30
2022-11-16T18:28:53.945Z,138.73
2022-11-16T18:31:37.043Z,138.13
2022-11-16T18:34:20.425Z,144.07
2022-11-16T18:37:04.945Z,127.77
2022-11-16T18:39:48.039Z,148.33
2022-11-16T18:42:31.120Z,134.73
2022-11-16T18:45:14.156Z,144.50
2022-11-16T18:47:57.244Z,132.43
2022-11-16T18:50:40.280Z,186.70
2022-11-16T18:53:25.076Z,167.03
2022-11-16T18:56:09.024Z,152.00
2022-11-16T18:58:53.109Z,139.67
2022-11-16T19:01:36.524Z,142.77
2022-11-16T19:04:19.586Z,148.07
2022-11-16T19:07:02.745Z,134.67
2022-11-16T19:09:47.390Z,124.03
2022-11-16T19:12:30.722Z,132.90
2022-11-16T19:15:14.258Z,131.87
2022-11-16T19:18:19.883Z,120.93
2022-11-16T19:21:07.715Z,124.20
2022-11-16T19:23:52.167Z,111.87
2022-11-16T19:26:36.613Z,121.73
2022-11-16T19:29:19.659Z,119.13
2022-11-16T19:32:02.788Z,123.10
2022-11-16T19:34:45.786Z,121.30
2022-11-16T19:37:29.258Z,122.17
2022-11-16T19:40:13.478Z,122.67
2022-11-16T19:42:58.410Z,125.37
2022-11-16T19:45:42.479Z,123.23
2022-11-16T19:48:25.510Z,127.77
2022-11-16T19:51:09.932Z,131.07
2022-11-16T19:53:53.245Z,126.87
2022-11-16T19:56:36.290Z,129.60
2022-11-16T19:59:20.980Z,129.57
2022-11-16T20:02:04.239Z,123.63
2022-11-16T20:04:47.438Z,125.13
2022-11-16T20:07:30.651Z,121.10
2022-11-16T20:10:13.789Z,123.47
2022-11-16T20:12:56.923Z,122.87
2022-11-16T20:15:41.397Z,128.80
2022-11-16T20:18:24.547Z,126.30
2022-11-16T20:21:08.717Z,130.70
2022-11-16T20:23:52.701Z,170.03
2022-11-16T20:26:37.625Z,144.70
2022-11-16T20:29:21.047Z,137.07
2022-11-16T20:32:05.624Z,131.10
2022-11-16T20:34:48.652Z,130.17
2022-11-16T20:37:31.650Z,127.40
2022-11-16T20:40:15.631Z,126.53
2022-11-16T20:43:00.255Z,113.80
2022-11-16T20:45:43.354Z,114.23
2022-11-16T20:48:27.780Z,123.37
2022-11-16T20:51:12.774Z,128.33
2022-11-16T20:53:56.223Z,122.87
2022-11-16T20:56:39.296Z,129.53
2022-11-16T20:59:22.289Z,133.70
2022-11-16T21:02:05.405Z,120.87
2022-11-16T21:04:49.836Z,106.63
2022-11-16T21:07:32.958Z,99.60
2022-11-16T21:10:21.936Z,115.90
2022-11-16T21:13:22.552Z,115.97
2022-11-16T21:16:08.205Z,108.17
2022-11-16T21:18:51.283Z,110.17
2022-11-16T21:21:35.923Z,118.13
2022-11-16T21:24:18.924Z,112.70
2022-11-16T21:27:01.914Z,112.47
2022-11-16T21:29:44.966Z,110.37
2022-11-16T21:32:28.022Z,124.67
2022-11-16T21:35:11.023Z,101.93
2022-11-16T21:37:55.400Z,102.67
2022-11-16T21:40:38.961Z,98.97
2022-11-16T21:43:22.182Z,95.40
2022-11-16T21:46:06.742Z,100.70
2022-11-16T21:48:51.316Z,91.43
2022-11-16T21:51:34.941Z,102.13
2022-11-16T21:54:19.481Z,104.60
2022-11-16T21:57:02.709Z,116.93
2022-11-16T21:59:45.726Z,101.53
2022-11-16T22:02:28.740Z,108.27
2022-11-16T22:05:29.203Z,105.03
2022-11-16T22:08:12.780Z,101.90
2022-11-16T22:10:57.220Z,113.63
2022-11-16T22:13:40.690Z,119.33
2022-11-16T22:16:24.381Z,112.63
2022-11-16T22:19:07.408Z,105.17
2022-11-16T22:21:50.392Z,101.80
2022-11-16T22:24:33.494Z,108.27
2022-11-16T22:27:18.905Z,98.90
2022-11-16T22:30:01.873Z,91.30
2022-11-16T22:32:46.028Z,84.70
2022-11-16T22:35:29.068Z,80.73
2022-11-16T22:38:12.068Z,99.87
2022-11-16T22:40:56.984Z,96.83
2022-11-16T22:43:41.624Z,102.87
2022-11-16T22:46:24.828Z,98.23
2022-11-16T22:49:07.918Z,96.17
2022-11-16T22:51:51.011Z,93.53
2022-11-16T22:54:34.703Z,104.60
2022-11-16T22:57:17.693Z,113.03
2022-11-16T23:00:02.143Z,120.60
2022-11-16T23:02:45.293Z,116.17
2022-11-16T23:05:28.361Z,109.90
2022-11-16T23:08:11.344Z,103.13
2022-11-16T23:11:18.723Z,105.90
2022-11-16T23:14:20.146Z,99.63
2022-11-16T23:17:05.092Z,97.90
2022-11-16T23:20:05.750Z,102.77
2022-11-16T23:23:06.104Z,111.77
2022-11-16T23:26:06.579Z,96.17
2022-11-16T23:28:49.592Z,89.27
2022-11-16T23:31:32.626Z,88.57
2022-11-16T23:34:16.993Z,86.53
2022-11-16T23:37:03.486Z,85.77
2022-11-16T23:39:46.482Z,90.37
2022-11-16T23:42:47.243Z,83.27
2022-11-16T23:45:30.256Z,83.37
2022-11-16T23:48:16.041Z,79.00
2022-11-16T23:51:00.498Z,76.67
2022-11-16T23:53:43.482Z,70.03
2022-11-16T23:56:26.518Z,68.93
2022-11-16T23:59:09.580Z,67.80
